createdAt,value
2022-11-10T00:00:35.785Z,97324.75
2022-11-10T00:03:04.765Z,97337.25
2022-11-10T00:05:33.643Z,97331.31
2022-11-10T00:08:04.634Z,97322.28
2022-11-10T00:10:54.922Z,97322.41
2022-11-10T00:13:23.286Z,97321.44
2022-11-10T00:16:08.964Z,97326.69
2022-11-10T00:18:37.140Z,97340.41
2022-11-10T00:21:07.032Z,97331.81
2022-11-10T00:23:35.372Z,97331.97
2022-11-10T00:26:05.671Z,97338.75
2022-11-10T00:28:34.023Z,97348.91
2022-11-10T00:31:07.035Z,97351.69
2022-11-10T00:33:36.713Z,97342.16
2022-11-10T00:36:05.542Z,97348.09
2022-11-10T00:38:33.923Z,97350.94
2022-11-10T00:41:02.535Z,97354.38
2022-11-10T00:43:32.538Z,97351.44
2022-11-10T00:46:01.295Z,97365.75
2022-11-10T00:48:29.444Z,97363.44
2022-11-10T00:50:57.636Z,97368.69
2022-11-10T00:53:25.833Z,97358.94
2022-11-10T00:55:54.283Z,97361.41
2022-11-10T00:58:22.425Z,97382.69
2022-11-10T01:00:52.051Z,97382.00
2022-11-10T01:03:20.423Z,97381.03
2022-11-10T01:05:48.872Z,97389.09
2022-11-10T01:08:17.023Z,97396.16
2022-11-10T01:10:45.121Z,97399.09
2022-11-10T01:13:13.304Z,97395.63
2022-11-10T01:15:41.928Z,97395.19
2022-11-10T01:18:11.463Z,97393.38
2022-11-10T01:20:39.643Z,97389.09
2022-11-10T01:23:07.794Z,97395.03
2022-11-10T01:25:35.964Z,97387.28
2022-11-10T01:28:04.065Z,97399.31
2022-11-10T01:30:32.262Z,97400.59
2022-11-10T01:33:00.353Z,97406.69
2022-11-10T01:35:29.943Z,97408.66
2022-11-10T01:37:58.822Z,97410.44
2022-11-10T01:40:27.052Z,97416.25
2022-11-10T01:42:57.803Z,97423.47
2022-11-10T01:45:47.596Z,97424.28
2022-11-10T01:48:19.661Z,97424.00
2022-11-10T01:50:50.263Z,97419.03
2022-11-10T01:53:22.444Z,97423.63
2022-11-10T01:55:51.484Z,97426.94
2022-11-10T01:58:23.363Z,97419.03
2022-11-10T02:00:51.968Z,97419.88
2022-11-10T02:03:24.946Z,97422.94
2022-11-10T02:05:54.638Z,97435.97
2022-11-10T02:08:23.793Z,97442.38
2022-11-10T02:10:51.937Z,97442.38
2022-11-10T02:13:20.560Z,97429.81
2022-11-10T02:15:48.892Z,97442.53
2022-11-10T02:18:16.993Z,97444.31
2022-11-10T02:20:47.463Z,97440.22
2022-11-10T02:23:22.320Z,97441.03
2022-11-10T02:25:50.757Z,97447.81
2022-11-10T02:28:18.905Z,97443.50
2022-11-10T02:30:47.046Z,97450.25
2022-11-10T02:33:18.022Z,97465.94
2022-11-10T02:35:48.093Z,97460.00
2022-11-10T02:38:16.273Z,97465.09
2022-11-10T02:40:44.493Z,97474.13
2022-11-10T02:43:13.730Z,97469.53
2022-11-10T02:45:45.262Z,97459.00
2022-11-10T02:48:35.683Z,97458.66
2022-11-10T02:51:05.391Z,97463.75
2022-11-10T02:53:36.643Z,97480.53
2022-11-10T02:56:05.007Z,97486.78
2022-11-10T02:58:33.275Z,97486.63
2022-11-10T03:01:01.728Z,97488.72
2022-11-10T03:03:30.025Z,97484.31
2022-11-10T03:05:58.366Z,97488.06
2022-11-10T03:08:27.986Z,97490.19
2022-11-10T03:10:57.187Z,97489.34
2022-11-10T03:13:32.233Z,97491.13
2022-11-10T03:16:13.485Z,97494.91
2022-11-10T03:18:41.748Z,97498.53
2022-11-10T03:21:10.020Z,97498.53
2022-11-10T03:23:39.715Z,97499.19
2022-11-10T03:26:08.839Z,97506.25
2022-11-10T03:28:37.178Z,97513.47
2022-11-10T03:31:05.419Z,97507.53
2022-11-10T03:33:33.787Z,97512.97
2022-11-10T03:36:02.079Z,97523.63
2022-11-10T03:38:31.677Z,97522.66
2022-11-10T03:41:18.673Z,97517.25
2022-11-10T03:43:47.958Z,97524.97
2022-11-10T03:46:16.242Z,97537.34
2022-11-10T03:48:50.246Z,97548.16
2022-11-10T03:51:21.730Z,97545.66
2022-11-10T03:53:49.908Z,97559.81
2022-11-10T03:56:19.543Z,97550.81
2022-11-10T03:58:47.677Z,97566.91
2022-11-10T04:01:16.127Z,97567.88
2022-11-10T04:03:48.782Z,97564.69
2022-11-10T04:06:36.763Z,97570.25
2022-11-10T04:09:05.507Z,97579.44
2022-11-10T04:11:52.828Z,97578.59
2022-11-10T04:14:38.524Z,97583.19
2022-11-10T04:17:06.743Z,97588.31
2022-11-10T04:19:34.870Z,97594.00
2022-11-10T04:22:03.129Z,97598.44
2022-11-10T04:24:31.337Z,97608.09
2022-11-10T04:27:00.979Z,97609.06
2022-11-10T04:29:29.199Z,97611.53
2022-11-10T04:31:57.317Z,97608.38
2022-11-10T04:34:25.467Z,97614.25
2022-11-10T04:36:53.658Z,97613.69
2022-11-10T04:39:21.718Z,97622.72
2022-11-10T04:41:49.867Z,97626.88
2022-11-10T04:44:19.455Z,97629.09
2022-11-10T04:46:47.627Z,97631.03
2022-11-10T04:49:15.909Z,97637.69
2022-11-10T04:51:44.252Z,97638.97
2022-11-10T04:54:13.049Z,97638.19
2022-11-10T04:56:41.600Z,97645.66
2022-11-10T04:59:09.961Z,97645.66
2022-11-10T05:01:39.555Z,97649.28
2022-11-10T05:04:07.908Z,97651.81
2022-11-10T05:06:36.546Z,97653.19
2022-11-10T05:09:04.828Z,97652.78
2022-11-10T05:11:32.944Z,97654.59
2022-11-10T05:14:01.638Z,97646.03
2022-11-10T05:16:29.781Z,97648.94
2022-11-10T05:18:59.450Z,97656.41
2022-11-10T05:21:27.746Z,97658.47
2022-11-10T05:23:55.876Z,97660.81
2022-11-10T05:26:24.102Z,97667.19
2022-11-10T05:28:52.319Z,97676.47
2022-11-10T05:31:20.537Z,97679.22
2022-11-10T05:33:48.726Z,97683.38
2022-11-10T05:36:18.549Z,97692.66
2022-11-10T05:38:46.669Z,97696.78
2022-11-10T05:41:14.898Z,97693.19
2022-11-10T05:43:43.176Z,97696.78
2022-11-10T05:46:11.299Z,97708.53
2022-11-10T05:48:39.529Z,97695.69
2022-11-10T05:51:07.827Z,97712.97
2022-11-10T05:53:37.647Z,97717.38
2022-11-10T05:56:06.286Z,97717.66
2022-11-10T05:58:34.509Z,97723.75
2022-11-10T06:01:02.655Z,97724.84
2022-11-10T06:03:30.961Z,97733.00
2022-11-10T06:05:59.210Z,97734.25
2022-11-10T06:08:27.368Z,97746.13
2022-11-10T06:10:56.995Z,97740.97
2022-11-10T06:13:25.629Z,97745.28
2022-11-10T06:15:54.017Z,97754.25
2022-11-10T06:18:22.157Z,97766.00
2022-11-10T06:20:50.452Z,97773.88
2022-11-10T06:23:19.269Z,97773.84
2022-11-10T06:25:47.717Z,97780.44
2022-11-10T06:28:17.397Z,97794.59
2022-11-10T06:30:45.631Z,97816.56
2022-11-10T06:33:13.828Z,97816.56
2022-11-10T06:35:41.971Z,97820.44
2022-11-10T06:38:12.380Z,97817.91
2022-11-10T06:40:40.499Z,97828.94
2022-11-10T06:43:08.828Z,97841.69
2022-11-10T06:45:38.368Z,97846.94
2022-11-10T06:48:08.316Z,97846.78
2022-11-10T06:50:36.640Z,97849.34
2022-11-10T06:53:04.945Z,97848.53
2022-11-10T06:55:34.143Z,97852.69
2022-11-10T06:58:02.517Z,97851.00
2022-11-10T07:00:31.791Z,97859.09
2022-11-10T07:03:03.160Z,97855.78
2022-11-10T07:05:31.696Z,97861.97
2022-11-10T07:08:04.050Z,97863.75
2022-11-10T07:10:32.587Z,97872.78
2022-11-10T07:13:01.271Z,97885.53
2022-11-10T07:15:29.665Z,97886.28
2022-11-10T07:17:57.898Z,97881.03
2022-11-10T07:20:28.609Z,97890.47
2022-11-10T07:23:00.796Z,97883.44
2022-11-10T07:25:31.048Z,97890.78
2022-11-10T07:28:00.579Z,97892.91
2022-11-10T07:30:29.638Z,97908.00
2022-11-10T07:33:02.360Z,97913.25
2022-11-10T07:35:32.608Z,97917.47
2022-11-10T07:38:04.161Z,97926.81
2022-11-10T07:40:32.522Z,97924.94
2022-11-10T07:43:00.805Z,97930.50
2022-11-10T07:45:29.508Z,97938.97
2022-11-10T07:48:01.020Z,97941.25
2022-11-10T07:50:29.597Z,97954.44
2022-11-10T07:53:06.819Z,97954.72
2022-11-10T07:55:35.372Z,97958.06
2022-11-10T07:58:04.236Z,97955.34
2022-11-10T08:00:33.070Z,97971.06
2022-11-10T08:03:05.977Z,97978.25
2022-11-10T08:05:34.647Z,97984.22
2022-11-10T08:08:04.531Z,97984.94
2022-11-10T08:10:33.598Z,97989.91
2022-11-10T08:13:03.147Z,97991.16
2022-11-10T08:15:32.471Z,97993.78
2022-11-10T08:18:01.982Z,97990.72
2022-11-10T08:20:30.533Z,97994.50
2022-11-10T08:23:00.118Z,98009.47
2022-11-10T08:25:34.865Z,98012.94
2022-11-10T08:28:05.577Z,98009.03
2022-11-10T08:30:35.478Z,98001.28
2022-11-10T08:33:05.171Z,98002.50
2022-11-10T08:35:35.970Z,98009.44
2022-11-10T08:38:09.822Z,98019.09
2022-11-10T08:40:40.496Z,98007.28
2022-11-10T08:43:09.447Z,98015.88
2022-11-10T08:45:38.003Z,98014.31
2022-11-10T08:48:08.154Z,98015.94
2022-11-10T08:50:36.508Z,98031.84
2022-11-10T08:53:05.405Z,98034.00
2022-11-10T08:55:33.958Z,98039.59
2022-11-10T08:58:04.694Z,98041.16
2022-11-10T09:00:33.793Z,98046.47
2022-11-10T09:03:06.737Z,98053.66
2022-11-10T09:05:36.184Z,98045.28
2022-11-10T09:08:05.308Z,98044.28
2022-11-10T09:10:33.919Z,98040.19
2022-11-10T09:13:05.013Z,98031.72
2022-11-10T09:15:34.378Z,98029.44
2022-11-10T09:18:04.085Z,98046.03
2022-11-10T09:20:34.032Z,98050.34
2022-11-10T09:23:06.657Z,98058.34
2022-11-10T09:25:35.117Z,98054.66
2022-11-10T09:28:04.978Z,98061.75
2022-11-10T09:30:33.947Z,98052.69
2022-11-10T09:33:02.435Z,98062.44
2022-11-10T09:35:30.737Z,98057.34
2022-11-10T09:37:58.968Z,98059.31
2022-11-10T09:40:31.552Z,98062.78
2022-11-10T09:43:01.598Z,98070.13
2022-11-10T09:45:38.651Z,98073.91
2022-11-10T09:48:09.329Z,98077.72
2022-11-10T09:50:41.331Z,98074.44
2022-11-10T09:53:17.077Z,98076.91
2022-11-10T09:55:48.016Z,98081.88
2022-11-10T09:58:16.431Z,98084.22
2022-11-10T10:00:51.698Z,98069.78
2022-11-10T10:03:25.007Z,98075.56
2022-11-10T10:06:02.808Z,98075.47
2022-11-10T10:08:39.392Z,98080.16
2022-11-10T10:11:17.756Z,98075.22
2022-11-10T10:14:01.466Z,98094.13
2022-11-10T10:16:35.832Z,98091.81
2022-11-10T10:19:11.578Z,98092.66
2022-11-10T10:21:45.271Z,98094.13
2022-11-10T10:24:21.443Z,98101.59
2022-11-10T10:26:53.557Z,98114.03
2022-11-10T10:29:24.827Z,98110.91
2022-11-10T10:31:55.808Z,98105.59
2022-11-10T10:34:26.068Z,98110.91
2022-11-10T10:36:54.400Z,98100.28
2022-11-10T10:39:30.457Z,98109.22
2022-11-10T10:41:59.249Z,98105.41
2022-11-10T10:44:27.571Z,98109.22
2022-11-10T10:47:00.430Z,98101.56
2022-11-10T10:49:30.735Z,98091.44
2022-11-10T10:52:07.388Z,98087.41
2022-11-10T10:54:37.268Z,98091.75
2022-11-10T10:57:08.321Z,98098.13
2022-11-10T10:59:36.652Z,98108.25
2022-11-10T11:02:25.364Z,98094.06
2022-11-10T11:05:11.646Z,98076.22
2022-11-10T11:07:40.111Z,98071.72
2022-11-10T11:10:20.022Z,98075.97
2022-11-10T11:12:48.402Z,98069.72
2022-11-10T11:15:23.570Z,98078.38
2022-11-10T11:17:58.580Z,98082.88
2022-11-10T11:20:36.891Z,98101.56
2022-11-10T11:23:10.359Z,98101.94
2022-11-10T11:25:41.454Z,98105.94
2022-11-10T11:28:18.090Z,98093.94
2022-11-10T11:30:56.656Z,98096.94
2022-11-10T11:33:35.138Z,98099.88
2022-11-10T11:36:13.747Z,98098.38
2022-11-10T11:38:52.421Z,98099.47
2022-11-10T11:41:26.150Z,98109.47
2022-11-10T11:44:07.049Z,98102.59
2022-11-10T11:47:45.652Z,98107.78
2022-11-10T11:50:25.519Z,98114.19
2022-11-10T11:53:01.848Z,98110.44
2022-11-10T11:55:51.638Z,98105.84
2022-11-10T11:58:26.691Z,98093.63
2022-11-10T12:01:04.469Z,98094.94
2022-11-10T12:03:44.052Z,98088.31
2022-11-10T12:06:33.059Z,98092.66
2022-11-10T12:09:03.859Z,98097.44
2022-11-10T12:11:45.951Z,98089.16
2022-11-10T12:14:20.321Z,98088.84
2022-11-10T12:16:57.553Z,98088.69
2022-11-10T12:19:35.822Z,98083.00
2022-11-10T12:22:13.487Z,98084.84
2022-11-10T12:24:53.415Z,98090.63
2022-11-10T12:27:26.736Z,98093.63
2022-11-10T12:29:57.748Z,98092.44
2022-11-10T12:32:29.811Z,98095.75
2022-11-10T12:35:03.643Z,98101.22
2022-11-10T12:37:37.218Z,98100.75
2022-11-10T12:40:07.519Z,98090.63
2022-11-10T12:42:38.888Z,98092.72
2022-11-10T12:45:08.939Z,98089.56
2022-11-10T12:47:42.931Z,98070.50
2022-11-10T12:50:46.450Z,98081.28
2022-11-10T12:53:23.068Z,98081.75
2022-11-10T12:55:54.926Z,98080.38
2022-11-10T12:58:23.569Z,98075.44
2022-11-10T13:01:00.744Z,98085.75
2022-11-10T13:03:31.516Z,98089.03
2022-11-10T13:06:02.338Z,98085.47
2022-11-10T13:08:47.077Z,98083.97
2022-11-10T13:11:28.931Z,98086.13
2022-11-10T13:14:00.059Z,98089.84
2022-11-10T13:16:52.291Z,98087.84
2022-11-10T13:19:48.750Z,98102.72
2022-11-10T13:22:32.019Z,98094.97
2022-11-10T13:25:37.299Z,98090.63
2022-11-10T13:28:10.278Z,98085.41
2022-11-10T13:30:43.700Z,98093.22
2022-11-10T13:33:31.460Z,98096.06
2022-11-10T13:35:59.719Z,98097.44
2022-11-10T13:38:39.149Z,98101.09
2022-11-10T13:41:21.792Z,98105.28
2022-11-10T13:43:52.289Z,98108.66
2022-11-10T13:46:21.029Z,98104.47
2022-11-10T13:49:01.984Z,98095.63
2022-11-10T13:51:39.950Z,98106.16
2022-11-10T13:54:41.359Z,98112.22
2022-11-10T13:57:20.079Z,98123.03
2022-11-10T13:59:53.161Z,98127.25
2022-11-10T14:02:50.004Z,98130.53
2022-11-10T14:06:04.108Z,98133.38
2022-11-10T14:08:43.403Z,98129.72
2022-11-10T14:11:19.599Z,98139.19
2022-11-10T14:13:52.443Z,98144.69
2022-11-10T14:16:24.273Z,98144.22
2022-11-10T14:18:57.687Z,98143.22
2022-11-10T14:21:32.439Z,98128.44
2022-11-10T14:24:06.009Z,98139.22
2022-11-10T14:26:38.031Z,98134.06
2022-11-10T14:29:34.777Z,98137.22
2022-11-10T14:32:06.963Z,98145.88
2022-11-10T14:34:45.609Z,98151.16
2022-11-10T14:37:17.671Z,98150.88
2022-11-10T14:39:45.854Z,98148.38
2022-11-10T14:42:15.958Z,98151.84
2022-11-10T14:44:44.280Z,98153.84
2022-11-10T14:47:27.441Z,98159.78
2022-11-10T14:50:06.849Z,98155.94
2022-11-10T14:52:39.539Z,98158.06
2022-11-10T14:55:10.852Z,98165.94
2022-11-10T14:57:40.770Z,98167.78
2022-11-10T15:00:13.747Z,98171.03
2022-11-10T15:02:44.630Z,98171.97
2022-11-10T15:05:15.521Z,98176.81
2022-11-10T15:07:44.851Z,98193.56
2022-11-10T15:10:17.678Z,98198.66
2022-11-10T15:12:45.971Z,98200.38
2022-11-10T15:15:20.970Z,98214.97
2022-11-10T15:17:51.831Z,98216.63
2022-11-10T15:20:31.403Z,98230.81
2022-11-10T15:23:00.630Z,98226.19
2022-11-10T15:25:35.328Z,98231.97
2022-11-10T15:28:21.570Z,98229.94
2022-11-10T15:30:52.442Z,98230.97
2022-11-10T15:33:27.028Z,98246.56
2022-11-10T15:35:57.150Z,98241.88
2022-11-10T15:38:28.800Z,98250.94
2022-11-10T15:41:16.270Z,98253.47
2022-11-10T15:43:44.618Z,98258.31
2022-11-10T15:46:18.695Z,98263.03
2022-11-10T15:48:51.891Z,98267.88
2022-11-10T15:51:25.905Z,98261.88
2022-11-10T15:53:55.639Z,98266.59
2022-11-10T15:56:25.629Z,98278.19
2022-11-10T15:59:00.591Z,98276.78
2022-11-10T16:01:30.358Z,98269.91
2022-11-10T16:04:00.110Z,98275.13
2022-11-10T16:06:30.443Z,98284.69
2022-11-10T16:08:58.800Z,98287.00
2022-11-10T16:11:27.969Z,98294.97
2022-11-10T16:13:56.784Z,98296.69
2022-11-10T16:16:25.342Z,98294.72
2022-11-10T16:18:53.611Z,98297.03
2022-11-10T16:21:24.270Z,98292.00
2022-11-10T16:23:53.103Z,98289.16
2022-11-10T16:26:23.928Z,98296.59
2022-11-10T16:28:52.220Z,98296.59
2022-11-10T16:31:22.128Z,98296.34
2022-11-10T16:33:50.575Z,98298.28
2022-11-10T16:36:25.371Z,98298.53
2022-11-10T16:38:54.261Z,98311.59
2022-11-10T16:41:23.811Z,98312.09
2022-11-10T16:43:51.992Z,98322.38
2022-11-10T16:46:23.091Z,98323.03
2022-11-10T16:48:52.863Z,98326.16
2022-11-10T16:51:30.758Z,98334.50
2022-11-10T16:53:59.743Z,98333.47
2022-11-10T16:56:29.009Z,98344.47
2022-11-10T16:58:57.411Z,98338.88
2022-11-10T17:01:28.511Z,98349.63
2022-11-10T17:03:58.961Z,98349.00
2022-11-10T17:06:30.979Z,98358.09
2022-11-10T17:09:03.211Z,98352.59
2022-11-10T17:11:31.422Z,98354.50
2022-11-10T17:13:59.590Z,98353.44
2022-11-10T17:16:30.121Z,98356.41
2022-11-10T17:18:59.423Z,98360.63
2022-11-10T17:21:32.843Z,98357.97
2022-11-10T17:24:01.545Z,98366.72
2022-11-10T17:26:30.322Z,98378.41
2022-11-10T17:28:58.624Z,98377.22
2022-11-10T17:31:26.783Z,98381.72
2022-11-10T17:33:55.424Z,98386.63
2022-11-10T17:36:24.908Z,98369.81
2022-11-10T17:38:54.462Z,98386.78
2022-11-10T17:41:22.741Z,98383.06
2022-11-10T17:43:50.941Z,98383.28
2022-11-10T17:46:19.081Z,98386.03
2022-11-10T17:48:48.053Z,98393.19
2022-11-10T17:51:19.662Z,98397.84
2022-11-10T17:53:48.111Z,98397.84
2022-11-10T17:56:17.993Z,98405.63
2022-11-10T17:58:46.082Z,98394.88
2022-11-10T18:01:17.447Z,98402.16
2022-11-10T18:03:46.190Z,98415.06
2022-11-10T18:06:15.463Z,98408.94
2022-11-10T18:08:43.709Z,98406.06
2022-11-10T18:11:12.981Z,98402.50
2022-11-10T18:13:43.610Z,98403.06
2022-11-10T18:16:12.963Z,98409.09
2022-11-10T18:18:41.783Z,98406.84
2022-11-10T18:21:11.292Z,98407.19
2022-11-10T18:23:39.551Z,98402.28
2022-11-10T18:26:09.884Z,98401.53
2022-11-10T18:28:38.732Z,98401.94
2022-11-10T18:31:08.989Z,98400.75
2022-11-10T18:33:37.343Z,98396.53
2022-11-10T18:36:06.476Z,98407.16
2022-11-10T18:38:34.641Z,98402.06
2022-11-10T18:41:25.831Z,98402.06
2022-11-10T18:43:54.073Z,98399.75
2022-11-10T18:46:23.642Z,98413.44
2022-11-10T18:48:51.851Z,98406.44
2022-11-10T18:51:20.088Z,98408.09
2022-11-10T18:53:48.212Z,98409.38
2022-11-10T18:56:16.369Z,98412.03
2022-11-10T18:58:44.523Z,98411.44
2022-11-10T19:01:13.071Z,98412.63
2022-11-10T19:03:42.951Z,98416.06
2022-11-10T19:06:11.803Z,98417.63
2022-11-10T19:08:40.336Z,98422.63
2022-11-10T19:11:09.131Z,98418.34
2022-11-10T19:13:37.361Z,98428.94
2022-11-10T19:16:09.958Z,98426.31
2022-11-10T19:18:39.531Z,98436.34
2022-11-10T19:21:10.611Z,98432.28
2022-11-10T19:23:38.791Z,98441.31
2022-11-10T19:26:10.126Z,98443.44
2022-11-10T19:28:38.770Z,98445.75
2022-11-10T19:31:10.164Z,98451.81
2022-11-10T19:33:39.431Z,98452.31
2022-11-10T19:36:12.999Z,98448.06
2022-11-10T19:38:41.676Z,98451.28
2022-11-10T19:41:11.651Z,98469.50
2022-11-10T19:43:43.548Z,98474.03
2022-11-10T19:46:17.092Z,98482.22
2022-11-10T19:48:45.739Z,98487.44
2022-11-10T19:51:16.691Z,98488.63
2022-11-10T19:53:46.341Z,98495.78
2022-11-10T19:56:16.472Z,98506.28
2022-11-10T19:58:45.190Z,98498.53
2022-11-10T20:01:13.870Z,98504.00
2022-11-10T20:03:42.084Z,98496.56
2022-11-10T20:06:11.711Z,98507.38
2022-11-10T20:08:41.622Z,98498.47
2022-11-10T20:11:11.669Z,98501.69
2022-11-10T20:13:39.901Z,98498.34
2022-11-10T20:16:09.352Z,98500.47
2022-11-10T20:18:39.612Z,98507.72
2022-11-10T20:21:09.530Z,98504.25
2022-11-10T20:23:38.037Z,98512.63
2022-11-10T20:26:09.792Z,98514.00
2022-11-10T20:28:39.578Z,98511.06
2022-11-10T20:31:10.108Z,98516.94
2022-11-10T20:33:38.712Z,98509.91
2022-11-10T20:36:09.285Z,98498.78
2022-11-10T20:38:37.633Z,98511.06
2022-11-10T20:41:09.302Z,98515.78
2022-11-10T20:43:38.923Z,98514.50
2022-11-10T20:46:08.412Z,98517.75
2022-11-10T20:48:36.694Z,98519.13
2022-11-10T20:51:10.831Z,98517.97
2022-11-10T20:53:39.651Z,98519.84
2022-11-10T20:56:09.762Z,98519.13
2022-11-10T20:58:38.017Z,98524.16
2022-11-10T21:01:07.634Z,98523.69
2022-11-10T21:03:36.405Z,98525.50
2022-11-10T21:06:05.214Z,98520.34
2022-11-10T21:08:33.681Z,98523.91
2022-11-10T21:11:06.141Z,98517.13
2022-11-10T21:13:35.163Z,98511.97
2022-11-10T21:16:04.631Z,98517.53
2022-11-10T21:18:34.813Z,98521.09
2022-11-10T21:21:03.099Z,98509.03
2022-11-10T21:23:31.215Z,98510.63
2022-11-10T21:26:00.655Z,98514.91
2022-11-10T21:28:28.930Z,98509.38
2022-11-10T21:31:05.278Z,98514.38
2022-11-10T21:33:33.442Z,98521.41
2022-11-10T21:36:06.792Z,98512.09
2022-11-10T21:38:35.988Z,98518.06
2022-11-10T21:41:04.560Z,98531.88
2022-11-10T21:43:32.893Z,98525.28
2022-11-10T21:46:02.452Z,98517.75
2022-11-10T21:48:35.101Z,98527.94
2022-11-10T21:51:03.750Z,98527.59
2022-11-10T21:53:32.324Z,98526.16
2022-11-10T21:56:00.732Z,98523.09
2022-11-10T21:58:29.127Z,98532.75
2022-11-10T22:01:02.344Z,98536.50
2022-11-10T22:03:32.391Z,98535.34
2022-11-10T22:06:04.811Z,98527.25
2022-11-10T22:08:33.163Z,98520.88
2022-11-10T22:11:18.910Z,98527.44
2022-11-10T22:14:05.031Z,98526.19
2022-11-10T22:16:58.491Z,98528.19
2022-11-10T22:19:28.011Z,98536.47
2022-11-10T22:21:59.540Z,98527.56
2022-11-10T22:24:30.521Z,98526.06
2022-11-10T22:27:00.440Z,98527.22
2022-11-10T22:29:31.994Z,98522.19
2022-11-10T22:32:00.540Z,98526.94
2022-11-10T22:34:30.167Z,98537.75
2022-11-10T22:36:59.752Z,98542.38
2022-11-10T22:39:48.634Z,98539.97
2022-11-10T22:42:31.377Z,98527.91
2022-11-10T22:44:59.524Z,98530.53
2022-11-10T22:47:47.670Z,98532.41
2022-11-10T22:50:17.384Z,98524.88
2022-11-10T22:52:45.478Z,98521.84
2022-11-10T22:55:13.770Z,98523.75
2022-11-10T22:57:41.874Z,98528.63
2022-11-10T23:00:11.202Z,98529.19
2022-11-10T23:02:39.893Z,98532.94
2022-11-10T23:05:08.534Z,98530.31
2022-11-10T23:07:38.099Z,98523.63
2022-11-10T23:10:07.049Z,98537.13
2022-11-10T23:12:35.220Z,98532.75
2022-11-10T23:15:03.362Z,98541.44
2022-11-10T23:17:31.449Z,98537.88
2022-11-10T23:19:59.542Z,98537.78
2022-11-10T23:22:27.670Z,98540.63
2022-11-10T23:24:57.670Z,98538.50
2022-11-10T23:27:25.982Z,98546.88
2022-11-10T23:29:54.181Z,98549.81
2022-11-10T23:32:22.340Z,98550.09
2022-11-10T23:34:50.478Z,98555.47
2022-11-10T23:37:18.639Z,98547.38
2022-11-10T23:39:46.810Z,98546.09
2022-11-10T23:42:16.320Z,98549.56
2022-11-10T23:44:44.463Z,98544.63
2022-11-10T23:47:12.570Z,98547.75
2022-11-10T23:49:40.701Z,98544.91
2022-11-10T23:52:09.115Z,98544.59
2022-11-10T23:54:37.378Z,98546.03
2022-11-10T23:57:05.890Z,98539.34
2022-11-10T23:59:35.390Z,98542.47
